Strona główna
METAR-TAF:

METAR-TAF

Lotnisko :

Port lotniczy Salt Lake City

Salt Lake City, Utah, Stany Zjednoczone

Szerokość geograficzna: 40-46-41N, Długość geograficzna: 111-58-10W, wysokość: 1288 m

Aktualna obserwacja pogody

Raport powstał 52 minut temu, godzina 05:54 UTC
Wiatr 4 kt od zachód
Temperatura 27°C
Wilgotność 28%
Ciśnienie 1019 hPa
Widzialność: 16.1 km
Mało chmury na wysokości 9000 ft

METAR: KSLC 180554Z 27004KT 10SM FEW090 27/07 A3009 RMK AO2 SLP125 T02670072 10344 20261 51011

czas: 00:46 (06:46 UTC)

Prognoza

Raport powstał 1 godzina i 14 minut temu, godzina 05:32 UTC
Prognoza ważna od 18 godzina 06 UTC do 19 godzina 12 UTC
Wiatr 6 kt od południowo-południowy wschód
Widzialność: 10 km
bezchmurnie
Od 18 godzina 1800 UTC
Wiatr 8 kt od północny zachód
Widzialność: 10 km
Mało chmury na wysokości 15000 ft
Od 19 godzina 0300 UTC
Wiatr 6 kt od południowo-południowy wschód
Widzialność: 10 km
bezchmurnie

TAF: KSLC 180532Z 1806/1912 16006KT P6SM SKC FM181800 32008KT P6SM FEW150 FM190300 15006KT P6SM SKC

Obserwacja i prognoza pogody dla ponad 4000 lotnisk (raport METAR i TAF).

Dostępne stacje oznaczono żółtymi i czerwonymi punktami na mapie.

Najedź kursorem aby zobaczyć nazwę stacji.

Kliknij aby zobaczyć obserwacje i prognozy pogody.

Aby zmienić mapę: kliknij na zielony przycisk z czarnym krzyżykiem, aby powiększyć; na zielony przycisk z myślnikiem, aby pomniejszyć; na zielone strzałki, aby przejść do map sąsiednich.


METAR-TAF: